大連 の空港の天気 - METARとTAF

大連周水子国際空港 ( ZYTL / DLC ) - 中国 遼寧省大連市
飛行場実況気象(Metar)
観測時間07/20 19:30 CST (07/20 11:30 UTC)
風向・風速北北西 3m/s
視程10km以上
天気現象
なし
気温27℃
湿度74%
気圧1002hPa
METARZYTL 201130Z 33003MPS CAVOK 27/22 Q1002 NOSIG
過去の天気等 Google飛行場航空写真 Wunderground天気予報

過去48時間のMETAR

飛行場予報(TAF)
発表時間: 7/20 17:08 CST (7/20 09:08 UTC)
予報対象時間: 20日20時 CST ~ 21日20時 CST
風向・風速北西 4m/s
視程10km以上
なし
20日20時 CST ~ 20日24時 CST に一時的に
風向・風速東南東 5m/s
TAF ZYTL 200908Z 2012/2112 32004MPS CAVOK TX32/2106Z TN22/2020Z
TEMPO 2012/2016 11005MPS